Time;durP1;ratioP1;P1;durP2;ratioP2;P2;SDS_P1;SDS_P2;PMS_P1;PMS_P2;Temp;Humidity;BMP_temperature;BMP_pressure;BME280_temperature;BME280_humidity;BME280_pressure;Samples;Min_cycle;Max_cycle;Signal;HPM_P1;HPM_P2
2022/02/16 00:02:11;;;;;;;3.10;2.60;;;4.40;99.90;;;;;;5088985;28;20924;-80
2022/02/16 00:04:56;;;;;;;2.67;2.47;;;4.40;99.90;;;;;;5106783;27;20470;-80
2022/02/16 00:07:41;;;;;;;9.47;2.97;;;4.40;99.90;;;;;;5109937;28;20406;-80
2022/02/16 00:10:25;;;;;;;3.00;2.80;;;4.30;99.90;;;;;;5117919;28;20431;-82
2022/02/16 00:13:10;;;;;;;5.23;2.60;;;4.30;99.90;;;;;;5089218;28;20430;-81
2022/02/16 00:15:55;;;;;;;3.87;2.80;;;4.40;99.90;;;;;;5089748;28;20435;-80
2022/02/16 00:18:40;;;;;;;3.37;2.50;;;4.50;99.90;;;;;;5103677;28;20385;-80
2022/02/16 00:21:24;;;;;;;4.70;2.80;;;4.40;99.90;;;;;;5104886;28;20402;-80
2022/02/16 00:24:09;;;;;;;4.23;2.60;;;4.30;99.90;;;;;;5116729;27;20401;-81
2022/02/16 00:26:54;;;;;;;2.73;2.53;;;4.50;99.90;;;;;;5143996;27;20433;-81
2022/02/16 00:29:38;;;;;;;4.93;2.40;;;4.30;99.90;;;;;;5108236;28;20435;-81
2022/02/16 00:32:22;;;;;;;3.73;2.40;;;4.30;99.90;;;;;;5104336;28;20898;-80
2022/02/16 00:35:07;;;;;;;2.50;2.30;;;4.40;99.90;;;;;;5118145;28;20415;-80
2022/02/16 00:37:54;;;;;;;2.97;2.67;;;4.30;99.90;;;;;;5063300;28;20426;-80
2022/02/16 00:40:38;;;;;;;3.47;2.27;;;4.50;99.90;;;;;;5125235;28;20851;-80
2022/02/16 00:43:23;;;;;;;5.53;2.53;;;4.30;99.90;;;;;;5117909;28;20516;-80
2022/02/16 00:46:08;;;;;;;3.17;2.10;;;4.30;99.90;;;;;;5124603;28;20369;-80
2022/02/16 00:48:52;;;;;;;2.70;2.50;;;4.30;99.90;;;;;;5081926;28;20410;-80
2022/02/16 00:51:38;;;;;;;11.30;2.73;;;4.40;99.90;;;;;;5090455;28;20394;-80
2022/02/16 00:54:22;;;;;;;2.67;2.13;;;4.40;99.90;;;;;;5123272;28;20414;-80
2022/02/16 00:57:07;;;;;;;3.00;2.70;;;4.40;99.90;;;;;;5111095;28;20435;-80
2022/02/16 00:59:52;;;;;;;2.50;2.30;;;4.40;99.90;;;;;;5103842;28;20420;-80
2022/02/16 01:02:36;;;;;;;2.03;1.83;;;4.40;99.90;;;;;;5102125;28;20775;-80
2022/02/16 01:05:21;;;;;;;3.67;2.40;;;4.40;99.90;;;;;;5107792;28;20463;-80
2022/02/16 01:08:10;;;;;;;1.80;1.70;;;4.30;99.90;;;;;;5093412;28;20509;-80
2022/02/16 01:10:54;;;;;;;1.70;1.60;;;4.40;99.90;;;;;;5106041;28;20544;-80
2022/02/16 01:13:38;;;;;;;2.40;2.30;;;4.50;99.90;;;;;;5088053;28;20368;-80
2022/02/16 01:16:22;;;;;;;4.47;1.80;;;4.40;99.90;;;;;;5102872;28;20418;-81
2022/02/16 01:19:07;;;;;;;2.87;2.63;;;4.50;99.90;;;;;;5103409;28;20433;-81
2022/02/16 01:21:53;;;;;;;2.43;2.20;;;4.60;99.90;;;;;;5104353;28;20436;-81
2022/02/16 01:24:37;;;;;;;1.83;1.70;;;4.50;99.90;;;;;;5103620;28;20409;-81
2022/02/16 01:27:22;;;;;;;1.73;1.63;;;4.50;99.90;;;;;;5110277;28;20447;-79
2022/02/16 01:30:08;;;;;;;2.37;1.70;;;4.50;99.90;;;;;;5104374;28;20371;-79
2022/02/16 01:32:53;;;;;;;1.80;1.70;;;4.40;99.90;;;;;;5119700;28;20427;-80
2022/02/16 01:35:38;;;;;;;2.27;2.10;;;4.40;99.90;;;;;;5119637;28;20370;-79
2022/02/16 01:38:22;;;;;;;1.83;1.73;;;4.50;99.90;;;;;;5108523;28;20472;-81
2022/02/16 01:41:11;;;;;;;5.87;2.27;;;4.50;99.90;;;;;;5089170;28;20392;-81
2022/02/16 01:43:56;;;;;;;2.77;2.57;;;4.50;99.90;;;;;;5104039;28;20415;-81
2022/02/16 01:46:50;;;;;;;2.20;1.80;;;4.60;99.90;;;;;;5104041;28;20442;-81
2022/02/16 01:49:35;;;;;;;2.23;1.90;;;4.70;99.90;;;;;;5103961;28;20384;-81
2022/02/16 01:52:20;;;;;;;2.50;2.30;;;4.80;99.90;;;;;;5102632;28;20412;-81
2022/02/16 01:55:06;;;;;;;9.90;1.60;;;4.80;99.90;;;;;;5102654;28;20392;-81
2022/02/16 01:57:50;;;;;;;2.30;2.10;;;4.70;99.90;;;;;;5094360;28;20366;-81
2022/02/16 02:00:36;;;;;;;3.50;2.40;;;4.70;99.90;;;;;;5103378;28;20923;-80
2022/02/16 02:03:20;;;;;;;3.57;1.93;;;4.60;99.90;;;;;;5103538;28;20427;-81
2022/02/16 02:06:06;;;;;;;3.05;1.90;;;4.60;99.90;;;;;;5096795;28;20371;-81
2022/02/16 02:08:50;;;;;;;2.90;2.30;;;4.70;99.90;;;;;;5102684;28;20423;-81
2022/02/16 02:11:35;;;;;;;3.50;1.60;;;4.60;99.90;;;;;;5102439;28;20477;-81
2022/02/16 02:14:19;;;;;;;4.13;1.70;;;4.60;99.90;;;;;;5087677;28;20388;-80
2022/02/16 02:17:04;;;;;;;6.77;1.70;;;4.60;99.90;;;;;;5102458;28;20590;-81
2022/02/16 02:19:49;;;;;;;2.70;2.50;;;4.60;99.90;;;;;;5102602;28;20380;-81
2022/02/16 02:22:33;;;;;;;2.03;1.83;;;4.70;99.90;;;;;;5102563;28;20431;-81
2022/02/16 02:25:19;;;;;;;5.13;2.20;;;4.70;99.90;;;;;;5088661;28;20900;-81
2022/02/16 02:28:03;;;;;;;1.90;1.80;;;4.60;99.90;;;;;;5103513;28;20414;-81
2022/02/16 02:30:48;;;;;;;1.93;1.73;;;4.80;99.90;;;;;;5104766;28;20407;-81
2022/02/16 02:33:33;;;;;;;3.90;1.40;;;4.80;99.90;;;;;;5103716;28;20469;-81
2022/02/16 02:36:18;;;;;;;4.00;1.47;;;4.80;99.90;;;;;;5103419;28;20384;-81
2022/02/16 02:39:04;;;;;;;7.80;1.93;;;4.60;99.90;;;;;;5105370;28;20442;-81
2022/02/16 02:41:49;;;;;;;2.23;1.70;;;4.70;99.90;;;;;;5098136;28;20420;-80
2022/02/16 02:44:35;;;;;;;2.43;2.33;;;4.60;99.90;;;;;;5097856;28;20388;-80
2022/02/16 02:47:19;;;;;;;1.87;1.77;;;4.70;99.90;;;;;;5098547;28;20471;-80
2022/02/16 02:50:05;;;;;;;1.80;1.70;;;4.60;99.90;;;;;;5097869;28;20383;-80
2022/02/16 02:52:50;;;;;;;2.47;1.70;;;4.70;99.90;;;;;;5098030;28;20359;-81
2022/02/16 02:55:34;;;;;;;1.77;1.67;;;4.60;99.90;;;;;;5082647;28;20386;-80
2022/02/16 02:58:20;;;;;;;1.97;1.77;;;4.60;99.90;;;;;;5098628;28;20405;-80
2022/02/16 03:01:05;;;;;;;1.57;1.47;;;4.60;99.90;;;;;;5084111;28;20744;-80
2022/02/16 03:03:50;;;;;;;2.03;1.70;;;4.50;99.90;;;;;;5099664;28;20500;-79
2022/02/16 03:06:34;;;;;;;2.40;1.93;;;4.70;99.90;;;;;;5097348;28;20443;-80
2022/02/16 03:09:20;;;;;;;1.50;1.40;;;4.80;99.90;;;;;;5097331;28;20434;-80
2022/02/16 03:12:06;;;;;;;1.70;1.60;;;4.80;99.90;;;;;;5097627;28;20495;-80
2022/02/16 03:14:51;;;;;;;1.50;1.40;;;4.60;99.90;;;;;;5082045;28;20380;-80
2022/02/16 03:17:35;;;;;;;1.90;1.73;;;4.60;99.90;;;;;;5097738;28;20745;-81
2022/02/16 03:20:20;;;;;;;1.50;1.40;;;4.70;99.90;;;;;;5101147;28;20384;-81
2022/02/16 03:23:05;;;;;;;4.03;1.60;;;4.60;99.90;;;;;;5101428;28;20462;-80
2022/02/16 03:25:49;;;;;;;1.40;1.30;;;4.60;99.90;;;;;;5101621;28;20383;-81
2022/02/16 03:28:34;;;;;;;1.70;1.60;;;4.60;99.90;;;;;;5102258;28;20762;-80
2022/02/16 03:31:19;;;;;;;1.40;1.30;;;4.60;99.90;;;;;;5102347;28;20407;-81
2022/02/16 03:34:04;;;;;;;2.03;1.40;;;4.50;99.90;;;;;;5103369;28;20387;-81
2022/02/16 03:36:49;;;;;;;2.77;1.83;;;4.50;99.90;;;;;;5103198;28;20404;-81
2022/02/16 03:39:33;;;;;;;1.77;1.67;;;4.40;99.90;;;;;;5087392;28;20717;-80
2022/02/16 03:42:19;;;;;;;1.93;1.73;;;4.40;99.90;;;;;;5102479;28;20482;-80
2022/02/16 03:45:04;;;;;;;1.80;1.70;;;4.40;99.90;;;;;;5103284;28;20370;-81
2022/02/16 03:47:49;;;;;;;1.50;1.40;;;4.30;99.90;;;;;;5102065;28;20439;-80
2022/02/16 03:50:33;;;;;;;2.30;2.13;;;4.30;99.90;;;;;;5086445;28;20363;-80
2022/02/16 03:53:19;;;;;;;3.43;1.83;;;4.40;99.90;;;;;;5086327;28;20729;-80
2022/02/16 03:56:04;;;;;;;3.00;2.37;;;4.40;99.90;;;;;;5102138;28;20392;-80
2022/02/16 03:58:48;;;;;;;4.63;2.30;;;4.30;99.90;;;;;;5086904;28;20392;-80
2022/02/16 04:01:34;;;;;;;1.50;1.40;;;4.20;99.90;;;;;;5102483;28;20418;-80
2022/02/16 04:04:18;;;;;;;1.30;1.20;;;4.10;99.90;;;;;;5102102;28;21020;-80
2022/02/16 04:07:02;;;;;;;1.90;1.70;;;4.30;99.90;;;;;;5101310;28;20833;-80
2022/02/16 04:09:47;;;;;;;3.53;1.90;;;4.30;99.90;;;;;;5101758;28;20855;-80
2022/02/16 04:12:31;;;;;;;2.13;2.03;;;4.30;99.90;;;;;;5101589;28;20433;-81
2022/02/16 04:15:16;;;;;;;6.90;1.63;;;4.30;99.90;;;;;;5086165;28;20388;-81
2022/02/16 04:18:01;;;;;;;2.43;1.73;;;4.20;99.90;;;;;;5113371;28;20387;-80
2022/02/16 04:20:45;;;;;;;5.10;1.77;;;4.20;99.90;;;;;;5110562;28;20741;-80
2022/02/16 04:23:31;;;;;;;2.60;1.80;;;4.20;99.90;;;;;;5102458;28;20436;-81
2022/02/16 04:26:15;;;;;;;1.40;1.30;;;4.30;99.90;;;;;;5101885;28;20412;-80
2022/02/16 04:29:00;;;;;;;2.17;2.00;;;4.30;99.90;;;;;;5101410;28;20906;-80
2022/02/16 04:31:44;;;;;;;2.83;2.17;;;4.30;99.90;;;;;;5071723;28;20358;-81
2022/02/16 04:34:29;;;;;;;2.47;2.27;;;4.40;99.90;;;;;;5101121;28;20395;-80
2022/02/16 04:37:14;;;;;;;2.83;1.90;;;4.40;99.90;;;;;;5085593;28;20759;-81
2022/02/16 04:39:59;;;;;;;3.27;2.17;;;4.40;99.90;;;;;;5101192;28;20903;-80
2022/02/16 04:42:45;;;;;;;7.80;1.97;;;4.20;99.90;;;;;;5100670;28;20381;-80
2022/02/16 04:45:30;;;;;;;2.47;2.00;;;4.30;99.90;;;;;;5101477;28;20363;-80
2022/02/16 04:48:16;;;;;;;1.77;1.60;;;4.40;99.90;;;;;;5121239;28;20490;-80
2022/02/16 04:51:00;;;;;;;3.00;1.40;;;4.30;99.90;;;;;;5121032;28;20383;-80
2022/02/16 04:53:45;;;;;;;1.40;1.30;;;4.30;99.90;;;;;;5105755;28;20425;-80
2022/02/16 04:56:29;;;;;;;1.37;1.27;;;4.30;99.90;;;;;;5121259;28;20421;-81
2022/02/16 04:59:14;;;;;;;1.77;1.40;;;4.40;99.90;;;;;;5120506;28;20893;-81
2022/02/16 05:01:58;;;;;;;1.60;1.50;;;4.40;99.90;;;;;;5120986;28;20361;-81
2022/02/16 05:04:43;;;;;;;1.90;1.53;;;4.40;99.90;;;;;;5109115;28;20502;-80
2022/02/16 05:07:28;;;;;;;2.90;1.67;;;4.30;99.90;;;;;;5100326;28;20839;-81
2022/02/16 05:10:13;;;;;;;2.20;1.83;;;4.40;99.90;;;;;;5085036;28;20384;-80
2022/02/16 05:12:58;;;;;;;2.20;1.60;;;4.40;99.90;;;;;;5100413;28;20388;-81
2022/02/16 05:15:42;;;;;;;2.43;1.60;;;4.40;99.90;;;;;;5090441;28;20379;-80
2022/02/16 05:18:27;;;;;;;1.40;1.30;;;4.40;99.90;;;;;;5104954;28;20366;-80
2022/02/16 05:21:12;;;;;;;4.10;1.23;;;4.40;99.90;;;;;;5105474;28;20388;-80
2022/02/16 05:23:58;;;;;;;3.07;1.37;;;4.30;99.90;;;;;;5103418;28;20371;-81
2022/02/16 05:26:42;;;;;;;4.60;1.47;;;4.30;99.90;;;;;;5101045;28;20422;-81
2022/02/16 05:29:27;;;;;;;2.70;1.80;;;4.30;99.90;;;;;;5103012;28;20386;-78
2022/02/16 05:32:11;;;;;;;1.80;1.40;;;4.30;99.90;;;;;;5099682;28;20849;-81
2022/02/16 05:34:56;;;;;;;5.33;1.50;;;4.30;99.90;;;;;;5084947;28;20472;-81
2022/02/16 05:37:40;;;;;;;2.70;1.50;;;4.40;99.90;;;;;;5090820;28;20380;-79
2022/02/16 05:40:26;;;;;;;2.30;1.53;;;4.30;99.90;;;;;;5111837;28;20748;-81
2022/02/16 05:43:13;;;;;;;1.60;1.50;;;4.40;99.90;;;;;;5099979;28;20405;-81
2022/02/16 05:45:57;;;;;;;1.60;1.50;;;4.40;99.90;;;;;;5102360;28;20388;-79
2022/02/16 05:48:42;;;;;;;2.13;1.60;;;4.50;99.90;;;;;;5099752;28;20400;-79
2022/02/16 05:51:27;;;;;;;2.07;1.87;;;4.50;99.90;;;;;;5114889;28;20416;-79
2022/02/16 05:54:12;;;;;;;1.77;1.60;;;4.60;99.90;;;;;;5097579;28;20406;-79
2022/02/16 05:56:56;;;;;;;1.50;1.40;;;4.50;99.90;;;;;;5092223;28;20385;-81
2022/02/16 05:59:40;;;;;;;1.97;1.60;;;4.50;99.90;;;;;;5104644;28;20487;-79
2022/02/16 06:02:25;;;;;;;2.23;1.70;;;4.70;99.90;;;;;;5113363;28;20382;-79
2022/02/16 06:05:11;;;;;;;1.70;1.60;;;4.60;99.90;;;;;;5091501;28;20593;-79
2022/02/16 06:07:55;;;;;;;1.43;1.33;;;4.60;99.90;;;;;;5120058;28;20530;-79
2022/02/16 06:10:40;;;;;;;1.73;1.63;;;4.60;99.90;;;;;;5120406;28;20420;-81
2022/02/16 06:13:25;;;;;;;3.53;1.47;;;4.60;99.90;;;;;;5119541;28;20387;-81
2022/02/16 06:16:09;;;;;;;1.70;1.60;;;4.60;99.90;;;;;;5119813;28;20399;-81
2022/02/16 06:18:54;;;;;;;3.00;1.70;;;4.70;99.90;;;;;;5120143;28;20391;-81
2022/02/16 06:21:41;;;;;;;1.50;1.40;;;4.60;99.90;;;;;;5119532;28;20835;-81
2022/02/16 06:24:25;;;;;;;6.37;1.53;;;4.50;99.90;;;;;;5119921;28;20420;-81
2022/02/16 06:27:10;;;;;;;1.87;1.77;;;4.50;99.90;;;;;;5089804;28;20494;-81
2022/02/16 06:29:55;;;;;;;3.03;1.80;;;4.50;99.90;;;;;;5104695;28;20390;-80
2022/02/16 06:32:39;;;;;;;4.80;1.93;;;4.40;99.90;;;;;;5120896;28;20436;-80
2022/02/16 06:35:24;;;;;;;3.00;1.50;;;4.50;99.90;;;;;;5121238;28;20438;-81
2022/02/16 06:38:10;;;;;;;2.90;1.87;;;4.40;99.90;;;;;;5104189;28;20392;-81
2022/02/16 06:40:54;;;;;;;1.63;1.53;;;4.40;99.90;;;;;;5119936;28;20437;-81
2022/02/16 06:43:39;;;;;;;2.60;1.97;;;4.50;99.90;;;;;;5103738;28;20434;-80
2022/02/16 06:46:23;;;;;;;3.10;1.90;;;4.60;99.90;;;;;;5090438;28;20428;-82
2022/02/16 06:49:08;;;;;;;1.60;1.50;;;4.50;99.90;;;;;;5109034;28;20410;-82
2022/02/16 06:51:53;;;;;;;1.87;1.40;;;4.50;99.90;;;;;;5100337;28;20906;-80
2022/02/16 06:54:38;;;;;;;2.43;2.23;;;4.60;99.90;;;;;;5108476;28;20411;-82
2022/02/16 06:57:23;;;;;;;1.90;1.73;;;4.60;99.90;;;;;;5099258;28;20370;-81
2022/02/16 07:00:08;;;;;;;10.33;2.33;;;4.60;99.90;;;;;;5084583;28;20363;-82
2022/02/16 07:02:52;;;;;;;3.20;1.93;;;4.60;99.90;;;;;;5067307;28;20535;-81
2022/02/16 07:05:37;;;;;;;3.33;2.50;;;4.80;99.90;;;;;;5120598;28;20466;-81
2022/02/16 07:08:22;;;;;;;3.73;1.87;;;4.80;99.90;;;;;;5119021;28;20462;-81
2022/02/16 07:11:06;;;;;;;7.50;2.90;;;4.80;99.90;;;;;;5104277;28;20398;-82
2022/02/16 07:13:57;;;;;;;2.27;1.90;;;4.70;99.90;;;;;;5110880;28;20429;-82
2022/02/16 07:16:41;;;;;;;2.37;2.17;;;4.90;99.90;;;;;;4979277;28;20432;-82
2022/02/16 07:19:26;;;;;;;2.77;1.83;;;4.80;99.90;;;;;;4989272;28;20431;-81
2022/02/16 07:22:11;;;;;;;3.13;1.90;;;4.90;99.90;;;;;;4988799;28;20571;-82
2022/02/16 07:24:55;;;;;;;1.40;1.30;;;4.80;99.90;;;;;;4984968;28;20424;-81
2022/02/16 07:27:40;;;;;;;3.50;2.10;;;4.80;99.90;;;;;;4977504;28;20511;-82
2022/02/16 07:30:24;;;;;;;2.83;2.23;;;4.70;99.90;;;;;;4988725;28;20986;-82
2022/02/16 07:33:09;;;;;;;2.70;2.43;;;4.80;99.90;;;;;;4983993;28;20449;-82
2022/02/16 07:35:54;;;;;;;1.50;1.40;;;5.00;99.90;;;;;;4982987;28;20425;-81
2022/02/16 07:38:38;;;;;;;2.77;2.10;;;4.90;99.90;;;;;;4977451;28;20468;-82
2022/02/16 07:41:22;;;;;;;1.50;1.40;;;4.90;99.90;;;;;;5011103;28;20454;-81
2022/02/16 07:44:07;;;;;;;2.20;2.00;;;5.00;99.90;;;;;;5040572;28;20406;-81
2022/02/16 07:46:52;;;;;;;1.87;1.70;;;5.00;99.90;;;;;;5060438;28;20486;-81
2022/02/16 07:49:38;;;;;;;2.37;2.03;;;5.00;99.90;;;;;;5101561;28;20477;-81
2022/02/16 07:52:23;;;;;;;1.90;1.57;;;5.20;99.90;;;;;;5090423;28;21055;-81
2022/02/16 07:55:07;;;;;;;1.60;1.50;;;5.20;99.90;;;;;;5110697;28;20444;-81
2022/02/16 07:57:53;;;;;;;3.33;2.30;;;5.10;99.90;;;;;;5103947;28;20431;-80
2022/02/16 08:00:38;;;;;;;1.70;1.60;;;5.20;99.90;;;;;;5089290;28;20514;-81
2022/02/16 08:03:23;;;;;;;2.77;1.87;;;5.20;99.90;;;;;;5084404;28;20476;-81
2022/02/16 08:06:07;;;;;;;5.50;2.30;;;5.40;99.90;;;;;;5093846;28;20518;-81
2022/02/16 08:08:52;;;;;;;2.87;1.73;;;5.40;99.90;;;;;;5083942;28;20405;-81
2022/02/16 08:11:39;;;;;;;8.63;2.57;;;5.30;99.90;;;;;;5090501;28;20427;-80
2022/02/16 08:14:24;;;;;;;1.70;1.60;;;5.40;99.90;;;;;;5101150;28;20472;-81
2022/02/16 08:17:08;;;;;;;2.00;1.87;;;5.30;99.90;;;;;;5083219;28;20424;-80
2022/02/16 08:19:53;;;;;;;1.87;1.77;;;5.40;99.90;;;;;;5091102;28;20428;-80
2022/02/16 08:22:38;;;;;;;1.57;1.47;;;5.30;99.90;;;;;;5093428;28;20978;-80
2022/02/16 08:25:23;;;;;;;1.50;1.37;;;5.30;99.90;;;;;;5091134;28;20423;-80
2022/02/16 08:28:09;;;;;;;9.10;1.70;;;5.50;99.90;;;;;;5068833;28;20466;-80
2022/02/16 08:30:53;;;;;;;1.93;1.83;;;5.40;99.90;;;;;;5081859;28;20879;-80
2022/02/16 08:33:38;;;;;;;3.23;2.37;;;5.40;99.90;;;;;;5072316;28;20464;-79
2022/02/16 08:36:29;;;;;;;4.27;1.97;;;5.40;99.90;;;;;;5099132;28;20435;-81
2022/02/16 08:39:15;;;;;;;2.07;1.67;;;5.60;99.90;;;;;;5083927;28;20432;-79
2022/02/16 08:41:59;;;;;;;2.60;2.07;;;5.70;99.90;;;;;;5076634;28;20454;-80
2022/02/16 08:44:44;;;;;;;2.40;2.20;;;5.60;99.90;;;;;;5072110;28;20450;-81
2022/02/16 08:47:29;;;;;;;1.97;1.87;;;5.80;99.90;;;;;;5099295;28;20465;-81
2022/02/16 08:50:14;;;;;;;2.03;1.70;;;5.80;99.90;;;;;;5072580;28;20436;-80
2022/02/16 08:52:59;;;;;;;1.87;1.77;;;5.80;99.90;;;;;;5078709;28;20416;-80
2022/02/16 08:55:44;;;;;;;2.50;2.30;;;5.90;99.90;;;;;;5104998;28;20442;-80
2022/02/16 08:58:30;;;;;;;1.83;1.73;;;6.00;99.90;;;;;;5111162;27;20423;-80
2022/02/16 09:01:14;;;;;;;4.07;2.77;;;5.90;99.90;;;;;;5111078;28;20434;-79
2022/02/16 09:04:01;;;;;;;1.57;1.47;;;6.00;99.90;;;;;;5109829;28;20454;-81
2022/02/16 09:07:27;;;;;;;3.30;1.60;;;6.00;99.90;;;;;;5098571;28;20440;-81
2022/02/16 09:09:49;;;;;;;3.20;1.93;;;6.10;99.90;;;;;;5108003;27;20438;-81
2022/02/16 09:12:36;;;;;;;2.23;1.87;;;6.10;99.90;;;;;;5091130;28;20422;-81
2022/02/16 09:15:21;;;;;;;1.60;1.50;;;6.00;99.90;;;;;;5109581;28;20427;-81
2022/02/16 09:18:08;;;;;;;2.87;2.53;;;6.10;99.90;;;;;;5108251;27;20533;-81
2022/02/16 09:20:54;;;;;;;1.70;1.60;;;6.20;99.90;;;;;;5062073;28;20423;-81
2022/02/16 09:23:41;;;;;;;2.10;1.90;;;6.20;99.90;;;;;;5068645;28;20412;-81
2022/02/16 09:26:27;;;;;;;1.60;1.50;;;6.40;99.90;;;;;;5066590;28;20420;-81
2022/02/16 09:29:12;;;;;;;5.13;1.47;;;6.50;99.90;;;;;;5060178;28;20438;-81
2022/02/16 09:31:58;;;;;;;4.50;1.60;;;6.60;99.90;;;;;;5045699;28;20437;-80
2022/02/16 09:34:45;;;;;;;1.43;1.33;;;6.70;99.90;;;;;;5061460;28;20879;-81
2022/02/16 09:37:31;;;;;;;10.20;3.63;;;7.00;99.90;;;;;;5073524;28;20456;-79
2022/02/16 09:40:16;;;;;;;2.60;1.60;;;7.10;99.90;;;;;;5055363;28;20933;-81
2022/02/16 09:43:02;;;;;;;2.23;2.03;;;7.10;99.90;;;;;;5062327;28;20468;-80
2022/02/16 09:45:47;;;;;;;2.70;1.60;;;7.20;99.90;;;;;;5040644;28;20434;-81
2022/02/16 09:48:33;;;;;;;1.73;1.30;;;7.10;99.90;;;;;;5061219;28;20503;-80
2022/02/16 09:51:18;;;;;;;2.13;1.93;;;7.30;99.90;;;;;;5071493;28;20477;-80
2022/02/16 09:54:03;;;;;;;1.97;1.53;;;7.20;99.90;;;;;;5109883;28;20430;-81
2022/02/16 09:56:48;;;;;;;1.70;1.60;;;7.10;99.90;;;;;;5114658;27;20438;-81
2022/02/16 09:59:34;;;;;;;2.03;1.50;;;7.30;99.90;;;;;;5104192;27;20447;-81
2022/02/16 10:02:19;;;;;;;1.73;1.40;;;7.20;99.90;;;;;;5091115;28;20222;-81
2022/02/16 10:05:06;;;;;;;2.77;1.90;;;7.40;99.90;;;;;;5107527;27;20466;-81
2022/02/16 10:07:50;;;;;;;2.33;1.40;;;7.40;99.90;;;;;;5110065;28;20462;-80
2022/02/16 10:10:35;;;;;;;3.27;1.63;;;7.60;99.90;;;;;;5108007;27;20461;-82
2022/02/16 10:13:21;;;;;;;1.30;1.20;;;7.60;99.90;;;;;;5123509;28;20410;-79
2022/02/16 10:16:31;;;;;;;4.10;1.70;;;7.70;99.90;;;;;;5025033;28;20456;-80
2022/02/16 10:19:55;;;;;;;3.17;1.50;;;7.60;99.90;;;;;;4942706;29;20446;-81
2022/02/16 10:22:46;;;;;;;1.40;1.30;;;7.80;99.90;;;;;;4899736;29;20472;-80
2022/02/16 10:25:35;;;;;;;1.40;1.30;;;7.80;99.90;;;;;;4902954;29;20580;-80
2022/02/16 10:28:42;;;;;;;1.20;1.10;;;7.90;99.90;;;;;;4833823;29;20474;-80
2022/02/16 10:31:26;;;;;;;2.00;1.60;;;7.90;99.90;;;;;;4843877;29;20469;-81
2022/02/16 10:34:12;;;;;;;1.40;1.30;;;7.90;99.90;;;;;;4837841;29;20432;-81
2022/02/16 10:37:08;;;;;;;1.60;1.50;;;7.90;99.90;;;;;;4827027;29;20546;-80
2022/02/16 10:40:10;;;;;;;1.27;1.17;;;7.90;99.90;;;;;;4826901;29;20912;-78
2022/02/16 10:42:57;;;;;;;1.40;1.30;;;8.00;99.90;;;;;;4810516;29;20475;-79
2022/02/16 10:45:47;;;;;;;1.20;1.10;;;7.90;99.90;;;;;;4815372;29;20452;-78
2022/02/16 10:48:31;;;;;;;1.20;1.10;;;7.90;99.90;;;;;;4865360;29;20504;-78
2022/02/16 10:51:22;;;;;;;1.40;1.30;;;7.90;99.90;;;;;;4860472;29;20610;-80
2022/02/16 10:54:27;;;;;;;1.83;1.70;;;8.10;99.90;;;;;;4861433;29;20538;-79
2022/02/16 10:57:14;;;;;;;1.60;1.50;;;8.00;99.90;;;;;;4891327;29;20583;-80
2022/02/16 11:00:19;;;;;;;1.50;1.40;;;8.00;99.90;;;;;;4957567;28;20437;-80
2022/02/16 11:03:06;;;;;;;1.50;1.40;;;8.00;99.90;;;;;;4920674;29;20463;-79
2022/02/16 11:06:23;;;;;;;1.77;1.35;;;8.00;99.90;;;;;;4918685;29;20430;-80
2022/02/16 11:09:16;;;;;;;1.63;1.43;;;8.00;99.90;;;;;;4905544;29;20270;-81
2022/02/16 11:12:03;;;;;;;1.67;1.57;;;8.10;99.90;;;;;;4951419;28;20430;-81
2022/02/16 11:15:09;;;;;;;2.80;1.30;;;8.20;99.90;;;;;;4980706;28;20468;-80
2022/02/16 11:18:13;;;;;;;1.23;1.13;;;8.10;99.90;;;;;;4928642;29;20446;-81
2022/02/16 11:21:09;;;;;;;1.20;1.00;;;8.10;99.90;;;;;;4876215;29;20443;-80
2022/02/16 11:23:58;;;;;;;1.10;1.00;;;8.30;99.90;;;;;;4880332;29;20456;-80
2022/02/16 11:26:45;;;;;;;1.50;1.40;;;8.40;99.90;;;;;;4911865;29;20594;-80
2022/02/16 11:29:41;;;;;;;1.30;1.20;;;8.20;99.90;;;;;;4916235;29;20488;-80
2022/02/16 11:32:32;;;;;;;1.93;1.73;;;8.40;99.90;;;;;;4911591;29;20435;-81
2022/02/16 11:35:23;;;;;;;1.10;1.00;;;8.20;99.90;;;;;;4916585;29;20444;-82
2022/02/16 11:38:11;;;;;;;1.37;1.27;;;8.20;99.90;;;;;;4955905;28;20999;-82
2022/02/16 11:40:57;;;;;;;1.00;1.00;;;8.30;99.90;;;;;;4955323;28;20514;-81
2022/02/16 11:44:15;;;;;;;1.23;1.13;;;8.40;99.90;;;;;;4962374;28;20485;-81
2022/02/16 11:47:00;;;;;;;1.20;1.10;;;8.30;99.90;;;;;;4953394;28;20923;-81
2022/02/16 11:49:45;;;;;;;3.43;1.10;;;8.30;99.90;;;;;;4970047;28;20529;-81
2022/02/16 11:52:34;;;;;;;1.20;1.10;;;8.50;99.90;;;;;;4962186;28;20485;-80
2022/02/16 11:55:25;;;;;;;1.20;1.10;;;8.40;99.90;;;;;;5004988;28;20938;-80
2022/02/16 11:58:20;;;;;;;1.40;1.30;;;8.30;99.90;;;;;;5033166;28;20570;-81
2022/02/16 12:01:05;;;;;;;1.20;1.10;;;8.40;99.90;;;;;;5039682;28;20548;-80
2022/02/16 12:03:52;;;;;;;1.20;1.10;;;8.30;99.90;;;;;;5039913;28;20524;-81
2022/02/16 12:06:37;;;;;;;4.10;2.83;;;8.30;99.90;;;;;;5054931;28;20811;-80
2022/02/16 12:09:25;;;;;;;1.30;1.20;;;8.20;99.90;;;;;;5048220;28;20509;-80
2022/02/16 12:12:12;;;;;;;1.10;1.00;;;8.10;99.90;;;;;;5052591;28;20448;-80
2022/02/16 12:14:57;;;;;;;1.30;1.20;;;8.20;99.90;;;;;;5038733;28;20469;-79
2022/02/16 12:17:41;;;;;;;1.63;1.30;;;8.20;99.90;;;;;;5085461;28;20953;-81
2022/02/16 12:20:29;;;;;;;1.20;1.10;;;8.20;99.90;;;;;;5118916;28;20442;-81
2022/02/16 12:23:14;;;;;;;1.10;1.00;;;8.30;99.90;;;;;;5107555;28;20483;-78
2022/02/16 12:26:03;;;;;;;4.00;1.60;;;8.20;99.90;;;;;;5113270;28;20441;-78
2022/02/16 12:28:53;;;;;;;6.20;1.33;;;8.10;99.90;;;;;;5129765;28;20224;-80
2022/02/16 12:31:43;;;;;;;1.17;1.07;;;8.10;99.90;;;;;;5127558;28;20406;-79
2022/02/16 12:34:30;;;;;;;1.57;1.37;;;8.00;99.90;;;;;;5095674;28;20468;-80
2022/02/16 12:37:17;;;;;;;1.40;1.30;;;8.00;99.90;;;;;;5108027;28;20519;-78
2022/02/16 12:40:15;;;;;;;1.27;1.10;;;8.00;99.90;;;;;;5121161;28;20430;-77
2022/02/16 12:42:59;;;;;;;2.10;1.20;;;7.90;99.90;;;;;;5097991;28;20477;-78
2022/02/16 12:45:46;;;;;;;1.40;1.30;;;8.00;99.90;;;;;;5100852;28;20418;-81
2022/02/16 12:48:31;;;;;;;1.17;1.07;;;8.20;99.90;;;;;;5105687;28;20505;-80
2022/02/16 12:51:26;;;;;;;6.70;1.97;;;8.10;99.90;;;;;;5116486;28;20849;-80
2022/02/16 12:54:14;;;;;;;4.70;1.50;;;8.20;99.90;;;;;;5112967;27;20434;-81
2022/02/16 12:57:02;;;;;;;1.40;1.30;;;8.10;99.90;;;;;;5118009;28;20405;-82
2022/02/16 13:02:43;;;;;;;1.47;1.37;;;8.10;99.90;;;;;;5114842;27;20656;-81
2022/02/16 13:05:37;;;;;;;1.30;1.20;;;8.30;99.90;;;;;;5101461;28;20470;-81
2022/02/16 13:08:26;;;;;;;1.20;1.00;;;8.20;99.90;;;;;;5111768;28;20526;-79
2022/02/16 13:11:11;;;;;;;1.43;1.33;;;8.30;99.90;;;;;;5112486;28;20426;-80
2022/02/16 13:14:08;;;;;;;2.42;1.90;;;8.30;99.90;;;;;;5075004;28;20466;-80
2022/02/16 13:17:14;;;;;;;2.00;1.40;;;8.30;99.90;;;;;;5109257;28;20496;-81
2022/02/16 13:20:18;;;;;;;1.30;1.10;;;8.30;99.90;;;;;;5064807;28;20590;-81
2022/02/16 13:23:06;;;;;;;1.40;1.30;;;8.20;99.90;;;;;;5067089;28;20316;-81
2022/02/16 13:25:53;;;;;;;4.10;1.43;;;8.30;99.90;;;;;;5073615;28;20904;-80
2022/02/16 13:28:39;;;;;;;1.40;1.30;;;8.30;99.90;;;;;;5070641;28;21047;-80
2022/02/16 13:31:28;;;;;;;1.77;1.53;;;8.40;99.90;;;;;;5067502;28;20452;-81
2022/02/16 13:34:17;;;;;;;1.20;1.10;;;8.40;99.90;;;;;;5074999;28;20817;-81
2022/02/16 13:37:08;;;;;;;2.43;1.20;;;8.50;99.90;;;;;;5066549;28;20421;-81
2022/02/16 13:40:09;;;;;;;1.40;1.30;;;8.60;99.90;;;;;;5068485;28;20428;-81
2022/02/16 13:43:00;;;;;;;1.20;1.10;;;8.70;99.90;;;;;;5059461;28;20489;-81
2022/02/16 13:46:04;;;;;;;2.23;1.30;;;8.80;99.90;;;;;;5061637;28;20444;-81
2022/02/16 13:48:49;;;;;;;0.90;0.90;;;8.70;99.90;;;;;;5003574;28;20486;-81
2022/02/16 13:51:34;;;;;;;3.27;1.70;;;8.80;99.90;;;;;;5032903;28;20419;-80
2022/02/16 13:54:23;;;;;;;1.43;1.30;;;8.80;99.90;;;;;;5047127;28;20488;-82
2022/02/16 13:57:14;;;;;;;2.20;1.60;;;8.80;99.90;;;;;;5052308;28;20463;-81
2022/02/16 14:00:09;;;;;;;2.03;1.40;;;8.90;99.90;;;;;;5040227;28;20449;-80
2022/02/16 14:03:11;;;;;;;1.60;1.50;;;8.80;99.90;;;;;;5029161;28;20562;-81
2022/02/16 14:05:56;;;;;;;1.77;1.40;;;8.90;99.90;;;;;;5043865;28;20462;-81
2022/02/16 14:08:41;;;;;;;1.40;1.30;;;8.90;99.90;;;;;;5050145;28;20985;-81
2022/02/16 14:11:26;;;;;;;4.30;1.50;;;8.90;99.90;;;;;;5047762;28;20473;-80
2022/02/16 14:14:10;;;;;;;1.37;1.27;;;8.80;99.90;;;;;;5054184;28;20484;-81
2022/02/16 14:16:55;;;;;;;1.33;1.23;;;8.90;99.90;;;;;;5049359;28;20440;-81
2022/02/16 14:19:39;;;;;;;1.20;1.10;;;8.90;99.90;;;;;;5062200;28;20953;-80
2022/02/16 14:22:24;;;;;;;1.10;1.00;;;9.00;99.90;;;;;;5113717;28;20505;-80
2022/02/16 14:25:09;;;;;;;3.60;1.50;;;9.00;99.90;;;;;;5096530;27;20416;-80
2022/02/16 14:27:54;;;;;;;1.37;1.27;;;9.00;99.90;;;;;;5107130;28;20961;-80
2022/02/16 14:30:39;;;;;;;1.23;1.13;;;9.00;99.90;;;;;;5111733;28;20732;-80
2022/02/16 14:33:23;;;;;;;1.20;1.03;;;9.10;99.90;;;;;;5096132;28;20396;-81
2022/02/16 14:36:08;;;;;;;1.20;1.10;;;9.10;99.90;;;;;;5111802;28;20997;-81
2022/02/16 14:38:53;;;;;;;1.30;1.20;;;9.20;99.90;;;;;;5093024;28;20419;-82
2022/02/16 14:41:39;;;;;;;1.40;1.30;;;9.10;99.90;;;;;;5111717;28;20428;-81
2022/02/16 14:44:23;;;;;;;1.37;1.27;;;9.20;99.90;;;;;;5103310;28;20414;-81